sensor_id;sensor_type;location;lat;lon;timestamp;pressure;altitude;pressure_sealevel;temperature;humidity
5500;BME280;2772;42.700;23.304;2023-06-26T00:01:41;94812.19;;;21.85;100.00
5500;BME280;2772;42.700;23.304;2023-06-26T00:04:08;94800.16;;;21.83;100.00
5500;BME280;2772;42.700;23.304;2023-06-26T00:06:39;94808.69;;;21.81;100.00
5500;BME280;2772;42.700;23.304;2023-06-26T00:09:07;94804.81;;;21.79;100.00
5500;BME280;2772;42.700;23.304;2023-06-26T00:11:33;94805.53;;;21.69;100.00
5500;BME280;2772;42.700;23.304;2023-06-26T00:14:00;94807.47;;;21.68;100.00
5500;BME280;2772;42.700;23.304;2023-06-26T00:16:28;94810.94;;;21.65;100.00
5500;BME280;2772;42.700;23.304;2023-06-26T00:18:56;94813.28;;;21.70;100.00
5500;BME280;2772;42.700;23.304;2023-06-26T00:21:24;94802.81;;;21.69;100.00
5500;BME280;2772;42.700;23.304;2023-06-26T00:23:50;94811.69;;;21.62;100.00
5500;BME280;2772;42.700;23.304;2023-06-26T00:26:17;94803.97;;;21.64;100.00
5500;BME280;2772;42.700;23.304;2023-06-26T00:28:44;94795.06;;;21.60;100.00
5500;BME280;2772;42.700;23.304;2023-06-26T00:31:11;94798.94;;;21.56;100.00
5500;BME280;2772;42.700;23.304;2023-06-26T00:33:39;94797.38;;;21.62;100.00
5500;BME280;2772;42.700;23.304;2023-06-26T00:36:05;94795.44;;;21.59;100.00
5500;BME280;2772;42.700;23.304;2023-06-26T00:38:32;94786.53;;;21.58;100.00
5500;BME280;2772;42.700;23.304;2023-06-26T00:40:59;94790.34;;;21.47;100.00
5500;BME280;2772;42.700;23.304;2023-06-26T00:43:28;94796.22;;;21.56;100.00
5500;BME280;2772;42.700;23.304;2023-06-26T00:45:55;94793.09;;;21.61;100.00
5500;BME280;2772;42.700;23.304;2023-06-26T00:48:22;94790.41;;;21.57;100.00
5500;BME280;2772;42.700;23.304;2023-06-26T00:50:50;94796.59;;;21.51;100.00
5500;BME280;2772;42.700;23.304;2023-06-26T00:53:16;94788.03;;;21.49;100.00
5500;BME280;2772;42.700;23.304;2023-06-26T00:55:45;94786.91;;;21.57;100.00
5500;BME280;2772;42.700;23.304;2023-06-26T00:58:13;94783.81;;;21.65;100.00
5500;BME280;2772;42.700;23.304;2023-06-26T01:00:51;94781.53;;;21.71;100.00
5500;BME280;2772;42.700;23.304;2023-06-26T01:03:22;94779.19;;;21.66;100.00
5500;BME280;2772;42.700;23.304;2023-06-26T01:05:56;94770.66;;;21.64;100.00
5500;BME280;2772;42.700;23.304;2023-06-26T01:08:29;94776.47;;;21.62;100.00
5500;BME280;2772;42.700;23.304;2023-06-26T01:10:56;94768.69;;;21.50;100.00
5500;BME280;2772;42.700;23.304;2023-06-26T01:13:23;94766.78;;;21.54;100.00
5500;BME280;2772;42.700;23.304;2023-06-26T01:15:53;94754.34;;;21.43;100.00
5500;BME280;2772;42.700;23.304;2023-06-26T01:18:25;94762.06;;;21.30;100.00
5500;BME280;2772;42.700;23.304;2023-06-26T01:20:54;94755.47;;;21.24;100.00
5500;BME280;2772;42.700;23.304;2023-06-26T01:23:30;94755.84;;;21.30;100.00
5500;BME280;2772;42.700;23.304;2023-06-26T01:26:11;94757.81;;;21.29;100.00
5500;BME280;2772;42.700;23.304;2023-06-26T01:28:41;94758.56;;;21.30;100.00
5500;BME280;2772;42.700;23.304;2023-06-26T01:31:09;94751.97;;;21.27;100.00
5500;BME280;2772;42.700;23.304;2023-06-26T01:33:36;94747.31;;;21.24;100.00
5500;BME280;2772;42.700;23.304;2023-06-26T01:36:05;94741.53;;;21.26;100.00
5500;BME280;2772;42.700;23.304;2023-06-26T01:38:32;94742.69;;;21.25;100.00
5500;BME280;2772;42.700;23.304;2023-06-26T01:41:00;94746.56;;;21.27;100.00
5500;BME280;2772;42.700;23.304;2023-06-26T01:43:33;94738.00;;;21.15;100.00
5500;BME280;2772;42.700;23.304;2023-06-26T01:46:04;94736.47;;;21.14;100.00
5500;BME280;2772;42.700;23.304;2023-06-26T01:48:38;94743.00;;;21.09;100.00
5500;BME280;2772;42.700;23.304;2023-06-26T01:51:07;94739.13;;;21.07;100.00
5500;BME280;2772;42.700;23.304;2023-06-26T01:53:37;94736.03;;;21.01;100.00
5500;BME280;2772;42.700;23.304;2023-06-26T01:56:07;94736.78;;;21.02;100.00
5500;BME280;2772;42.700;23.304;2023-06-26T01:58:37;94732.91;;;20.99;100.00
5500;BME280;2772;42.700;23.304;2023-06-26T02:01:07;94729.44;;;20.99;100.00
5500;BME280;2772;42.700;23.304;2023-06-26T02:03:34;94731.38;;;21.02;100.00
5500;BME280;2772;42.700;23.304;2023-06-26T02:06:00;94730.97;;;20.96;100.00
5500;BME280;2772;42.700;23.304;2023-06-26T02:08:27;94724.72;;;20.92;100.00
5500;BME280;2772;42.700;23.304;2023-06-26T02:10:54;94730.13;;;20.89;100.00
5500;BME280;2772;42.700;23.304;2023-06-26T02:13:20;94730.84;;;20.79;100.00
5500;BME280;2772;42.700;23.304;2023-06-26T02:15:49;94731.25;;;20.81;100.00
5500;BME280;2772;42.700;23.304;2023-06-26T02:18:16;94728.94;;;20.79;100.00
5500;BME280;2772;42.700;23.304;2023-06-26T02:20:43;94738.19;;;20.75;100.00
5500;BME280;2772;42.700;23.304;2023-06-26T02:23:10;94740.84;;;20.68;100.00
5500;BME280;2772;42.700;23.304;2023-06-26T02:25:38;94736.97;;;20.62;100.00
5500;BME280;2772;42.700;23.304;2023-06-26T02:28:04;94741.59;;;20.65;100.00
5500;BME280;2772;42.700;23.304;2023-06-26T02:30:31;94739.31;;;20.67;100.00
5500;BME280;2772;42.700;23.304;2023-06-26T02:32:59;94735.44;;;20.68;100.00
5500;BME280;2772;42.700;23.304;2023-06-26T02:35:26;94729.25;;;20.71;100.00
5500;BME280;2772;42.700;23.304;2023-06-26T02:37:53;94747.84;;;20.69;100.00
5500;BME280;2772;42.700;23.304;2023-06-26T02:40:19;94738.91;;;20.65;100.00
5500;BME280;2772;42.700;23.304;2023-06-26T02:42:46;94749.78;;;20.72;100.00
5500;BME280;2772;42.700;23.304;2023-06-26T02:45:13;94750.13;;;20.67;100.00
5500;BME280;2772;42.700;23.304;2023-06-26T02:47:39;94733.13;;;20.70;100.00
5500;BME280;2772;42.700;23.304;2023-06-26T02:50:09;94743.97;;;20.70;100.00
5500;BME280;2772;42.700;23.304;2023-06-26T02:52:35;94735.50;;;20.75;100.00
5500;BME280;2772;42.700;23.304;2023-06-26T02:55:03;94739.75;;;20.76;100.00
5500;BME280;2772;42.700;23.304;2023-06-26T02:57:30;94739.34;;;20.77;100.00
5500;BME280;2772;42.700;23.304;2023-06-26T02:59:57;94733.22;;;20.84;100.00
5500;BME280;2772;42.700;23.304;2023-06-26T03:02:23;94745.97;;;20.83;100.00
5500;BME280;2772;42.700;23.304;2023-06-26T03:04:50;94732.41;;;20.83;100.00
5500;BME280;2772;42.700;23.304;2023-06-26T03:07:19;94748.69;;;20.87;100.00
5500;BME280;2772;42.700;23.304;2023-06-26T03:09:46;94747.16;;;20.93;100.00
5500;BME280;2772;42.700;23.304;2023-06-26T03:12:13;94745.22;;;20.90;100.00
5500;BME280;2772;42.700;23.304;2023-06-26T03:14:40;94747.91;;;20.83;100.00
5500;BME280;2772;42.700;23.304;2023-06-26T03:17:06;94739.81;;;20.90;100.00
5500;BME280;2772;42.700;23.304;2023-06-26T03:19:33;94740.22;;;20.92;100.00
5500;BME280;2772;42.700;23.304;2023-06-26T03:22:00;94750.22;;;20.81;100.00
5500;BME280;2772;42.700;23.304;2023-06-26T03:24:28;94738.63;;;20.91;100.00
5500;BME280;2772;42.700;23.304;2023-06-26T03:26:55;94746.75;;;20.91;100.00
5500;BME280;2772;42.700;23.304;2023-06-26T03:29:22;94748.63;;;20.80;100.00
5500;BME280;2772;42.700;23.304;2023-06-26T03:31:48;94754.09;;;20.87;100.00
5500;BME280;2772;42.700;23.304;2023-06-26T03:34:15;94749.09;;;20.89;100.00
5500;BME280;2772;42.700;23.304;2023-06-26T03:36:42;94740.97;;;20.92;100.00
5500;BME280;2772;42.700;23.304;2023-06-26T03:39:08;94752.56;;;20.89;100.00
5500;BME280;2772;42.700;23.304;2023-06-26T03:41:37;94757.22;;;20.89;100.00
5500;BME280;2772;42.700;23.304;2023-06-26T03:44:03;94754.88;;;20.91;100.00
5500;BME280;2772;42.700;23.304;2023-06-26T03:46:30;94749.94;;;20.96;100.00
5500;BME280;2772;42.700;23.304;2023-06-26T03:48:57;94751.03;;;20.95;100.00
5500;BME280;2772;42.700;23.304;2023-06-26T03:51:24;94754.59;;;21.03;100.00
5500;BME280;2772;42.700;23.304;2023-06-26T03:53:53;94754.97;;;21.05;100.00
5500;BME280;2772;42.700;23.304;2023-06-26T03:56:21;94754.63;;;21.13;100.00
5500;BME280;2772;42.700;23.304;2023-06-26T03:58:49;94755.41;;;21.17;100.00
5500;BME280;2772;42.700;23.304;2023-06-26T04:01:16;94755.84;;;21.30;100.00
5500;BME280;2772;42.700;23.304;2023-06-26T04:21:13;94767.63;;;21.86;100.00
5500;BME280;2772;42.700;23.304;2023-06-26T04:23:40;94783.16;;;21.97;100.00
5500;BME280;2772;42.700;23.304;2023-06-26T04:26:07;94779.66;;;22.03;100.00
5500;BME280;2772;42.700;23.304;2023-06-26T04:28:35;94777.34;;;21.98;100.00
5500;BME280;2772;42.700;23.304;2023-06-26T04:31:02;94775.38;;;21.98;100.00
5500;BME280;2772;42.700;23.304;2023-06-26T04:33:29;94785.09;;;21.96;100.00
5500;BME280;2772;42.700;23.304;2023-06-26T04:35:56;94783.16;;;22.11;100.00
5500;BME280;2772;42.700;23.304;2023-06-26T04:38:24;94786.25;;;22.20;100.00
5500;BME280;2772;42.700;23.304;2023-06-26T04:40:51;94781.59;;;22.20;100.00
5500;BME280;2772;42.700;23.304;2023-06-26T04:43:18;94786.63;;;22.25;100.00
5500;BME280;2772;42.700;23.304;2023-06-26T04:45:45;94795.56;;;22.36;100.00
5500;BME280;2772;42.700;23.304;2023-06-26T04:48:11;94795.56;;;22.40;100.00
5500;BME280;2772;42.700;23.304;2023-06-26T04:50:39;94794.00;;;22.49;100.00
5500;BME280;2772;42.700;23.304;2023-06-26T04:53:06;94800.63;;;22.55;100.00
5500;BME280;2772;42.700;23.304;2023-06-26T04:55:34;94797.13;;;22.58;100.00
5500;BME280;2772;42.700;23.304;2023-06-26T04:58:01;94794.78;;;22.71;100.00
5500;BME280;2772;42.700;23.304;2023-06-26T05:00:28;94805.63;;;22.85;100.00
5500;BME280;2772;42.700;23.304;2023-06-26T05:02:55;94802.53;;;22.79;100.00
5500;BME280;2772;42.700;23.304;2023-06-26T05:05:26;94800.22;;;22.78;100.00
5500;BME280;2772;42.700;23.304;2023-06-26T05:07:53;94792.50;;;22.59;100.00
5500;BME280;2772;42.700;23.304;2023-06-26T05:10:20;94818.81;;;22.41;100.00
5500;BME280;2772;42.700;23.304;2023-06-26T05:12:51;94815.75;;;22.39;100.00
5500;BME280;2772;42.700;23.304;2023-06-26T05:15:17;94811.06;;;22.43;100.00
5500;BME280;2772;42.700;23.304;2023-06-26T05:17:44;94811.47;;;22.52;100.00
5500;BME280;2772;42.700;23.304;2023-06-26T05:20:11;94814.97;;;22.59;100.00
5500;BME280;2772;42.700;23.304;2023-06-26T05:22:39;94818.84;;;22.69;100.00
5500;BME280;2772;42.700;23.304;2023-06-26T05:25:08;94819.22;;;22.67;100.00
5500;BME280;2772;42.700;23.304;2023-06-26T05:27:36;94823.09;;;22.59;100.00
5500;BME280;2772;42.700;23.304;2023-06-26T05:30:06;94825.44;;;22.64;100.00
5500;BME280;2772;42.700;23.304;2023-06-26T05:32:34;94831.28;;;22.52;100.00
5500;BME280;2772;42.700;23.304;2023-06-26T05:35:02;94835.91;;;22.41;100.00
5500;BME280;2772;42.700;23.304;2023-06-26T05:37:30;94828.91;;;22.33;100.00
5500;BME280;2772;42.700;23.304;2023-06-26T05:39:59;94834.34;;;22.44;100.00
5500;BME280;2772;42.700;23.304;2023-06-26T05:42:26;94825.84;;;22.52;100.00
5500;BME280;2772;42.700;23.304;2023-06-26T05:44:54;94842.13;;;22.52;100.00
5500;BME280;2772;42.700;23.304;2023-06-26T05:47:22;94831.28;;;22.56;100.00
5500;BME280;2772;42.700;23.304;2023-06-26T05:49:49;94837.47;;;22.67;100.00
5500;BME280;2772;42.700;23.304;2023-06-26T05:52:16;94832.03;;;22.81;100.00
5500;BME280;2772;42.700;23.304;2023-06-26T05:54:43;94832.00;;;22.84;100.00
5500;BME280;2772;42.700;23.304;2023-06-26T05:57:13;94839.34;;;23.08;100.00
5500;BME280;2772;42.700;23.304;2023-06-26T05:59:43;94845.13;;;23.17;100.00
5500;BME280;2772;42.700;23.304;2023-06-26T06:02:10;94852.91;;;23.22;100.00
5500;BME280;2772;42.700;23.304;2023-06-26T06:04:38;94864.91;;;23.42;100.00
5500;BME280;2772;42.700;23.304;2023-06-26T06:07:05;94865.25;;;23.52;100.00
5500;BME280;2772;42.700;23.304;2023-06-26T06:09:31;94871.88;;;23.54;100.00
5500;BME280;2772;42.700;23.304;2023-06-26T06:11:59;94880.00;;;23.61;100.00
5500;BME280;2772;42.700;23.304;2023-06-26T06:14:26;94879.94;;;23.79;100.00
5500;BME280;2772;42.700;23.304;2023-06-26T06:16:53;94879.53;;;23.84;100.00
5500;BME280;2772;42.700;23.304;2023-06-26T06:19:20;94875.56;;;23.95;100.00
5500;BME280;2772;42.700;23.304;2023-06-26T06:21:48;94885.69;;;23.95;100.00
5500;BME280;2772;42.700;23.304;2023-06-26T06:24:15;94875.22;;;23.83;100.00
5500;BME280;2772;42.700;23.304;2023-06-26T06:26:42;94883.03;;;23.81;100.00
5500;BME280;2772;42.700;23.304;2023-06-26T06:29:09;94871.72;;;23.96;100.00
5500;BME280;2772;42.700;23.304;2023-06-26T06:31:35;94887.25;;;23.99;100.00
5500;BME280;2772;42.700;23.304;2023-06-26T06:34:02;94888.38;;;24.02;100.00
5500;BME280;2772;42.700;23.304;2023-06-26T06:36:29;94891.94;;;23.92;100.00
5500;BME280;2772;42.700;23.304;2023-06-26T06:38:57;94886.50;;;23.88;100.00
5500;BME280;2772;42.700;23.304;2023-06-26T06:41:24;94884.91;;;23.94;100.00
5500;BME280;2772;42.700;23.304;2023-06-26T06:43:51;94888.09;;;23.82;100.00
5500;BME280;2772;42.700;23.304;2023-06-26T06:46:18;94895.78;;;23.94;100.00
5500;BME280;2772;42.700;23.304;2023-06-26T06:48:44;94882.16;;;24.01;100.00
5500;BME280;2772;42.700;23.304;2023-06-26T06:51:12;94892.56;;;24.20;100.00
5500;BME280;2772;42.700;23.304;2023-06-26T06:53:39;94885.09;;;24.35;100.00
5500;BME280;2772;42.700;23.304;2023-06-26T06:56:07;94899.69;;;24.62;100.00
5500;BME280;2772;42.700;23.304;2023-06-26T06:58:33;94894.47;;;24.85;100.00
5500;BME280;2772;42.700;23.304;2023-06-26T07:01:01;94894.00;;;24.93;100.00
5500;BME280;2772;42.700;23.304;2023-06-26T07:03:29;94897.00;;;25.06;100.00
5500;BME280;2772;42.700;23.304;2023-06-26T07:05:56;94896.81;;;25.27;100.00
5500;BME280;2772;42.700;23.304;2023-06-26T07:08:23;94900.97;;;25.42;100.00
5500;BME280;2772;42.700;23.304;2023-06-26T07:10:51;94897.84;;;25.44;100.00
5500;BME280;2772;42.700;23.304;2023-06-26T07:13:22;94904.09;;;25.41;100.00
5500;BME280;2772;42.700;23.304;2023-06-26T07:15:49;94894.38;;;25.43;100.00
5500;BME280;2772;42.700;23.304;2023-06-26T07:18:15;94894.03;;;25.34;100.00
5500;BME280;2772;42.700;23.304;2023-06-26T07:20:42;94898.75;;;25.30;100.00
5500;BME280;2772;42.700;23.304;2023-06-26T07:23:09;94888.69;;;25.20;100.00
5500;BME280;2772;42.700;23.304;2023-06-26T07:25:36;94887.75;;;24.96;100.00
5500;BME280;2772;42.700;23.304;2023-06-26T07:28:03;94895.03;;;25.14;100.00
5500;BME280;2772;42.700;23.304;2023-06-26T07:30:31;94891.06;;;25.18;100.00
5500;BME280;2772;42.700;23.304;2023-06-26T07:32:58;94887.16;;;25.19;100.00
5500;BME280;2772;42.700;23.304;2023-06-26T07:35:24;94894.97;;;25.17;100.00
5500;BME280;2772;42.700;23.304;2023-06-26T07:37:53;94907.06;;;25.16;100.00
5500;BME280;2772;42.700;23.304;2023-06-26T07:40:20;94903.16;;;25.17;100.00
5500;BME280;2772;42.700;23.304;2023-06-26T07:42:46;94898.44;;;25.21;100.00
5500;BME280;2772;42.700;23.304;2023-06-26T07:45:16;94901.81;;;25.36;100.00
5500;BME280;2772;42.700;23.304;2023-06-26T07:47:44;94902.88;;;25.45;100.00
5500;BME280;2772;42.700;23.304;2023-06-26T07:50:11;94915.00;;;25.44;100.00
5500;BME280;2772;42.700;23.304;2023-06-26T07:52:41;94909.00;;;25.56;100.00
5500;BME280;2772;42.700;23.304;2023-06-26T07:55:08;94900.69;;;25.67;100.00
5500;BME280;2772;42.700;23.304;2023-06-26T07:57:35;94894.75;;;25.75;100.00
5500;BME280;2772;42.700;23.304;2023-06-26T08:00:02;94898.53;;;25.88;100.00
5500;BME280;2772;42.700;23.304;2023-06-26T08:02:32;94899.91;;;26.03;100.00
5500;BME280;2772;42.700;23.304;2023-06-26T08:05:00;94909.25;;;26.32;100.00
5500;BME280;2772;42.700;23.304;2023-06-26T08:07:26;94901.59;;;26.24;100.00
5500;BME280;2772;42.700;23.304;2023-06-26T08:09:53;94904.84;;;25.82;100.00
5500;BME280;2772;42.700;23.304;2023-06-26T08:12:20;94889.75;;;25.70;100.00
5500;BME280;2772;42.700;23.304;2023-06-26T08:14:46;94899.69;;;25.54;100.00
5500;BME280;2772;42.700;23.304;2023-06-26T08:17:13;94900.09;;;25.52;100.00
5500;BME280;2772;42.700;23.304;2023-06-26T08:19:40;94892.63;;;25.56;100.00
5500;BME280;2772;42.700;23.304;2023-06-26T08:22:08;94903.97;;;25.55;100.00
5500;BME280;2772;42.700;23.304;2023-06-26T08:24:35;94897.84;;;25.44;100.00
5500;BME280;2772;42.700;23.304;2023-06-26T08:27:02;94903.72;;;25.39;100.00
5500;BME280;2772;42.700;23.304;2023-06-26T08:29:30;94895.13;;;25.44;100.00
5500;BME280;2772;42.700;23.304;2023-06-26T08:31:56;94893.38;;;25.60;100.00
5500;BME280;2772;42.700;23.304;2023-06-26T08:34:23;94894.72;;;25.79;100.00
5500;BME280;2772;42.700;23.304;2023-06-26T08:36:50;94899.03;;;25.76;100.00
5500;BME280;2772;42.700;23.304;2023-06-26T08:39:18;94898.97;;;25.83;100.00
5500;BME280;2772;42.700;23.304;2023-06-26T08:41:45;94906.97;;;25.97;100.00
5500;BME280;2772;42.700;23.304;2023-06-26T08:44:11;94897.81;;;25.81;100.00
5500;BME280;2772;42.700;23.304;2023-06-26T08:46:38;94907.00;;;25.94;100.00
5500;BME280;2772;42.700;23.304;2023-06-26T08:49:11;94905.47;;;25.93;100.00
5500;BME280;2772;42.700;23.304;2023-06-26T08:51:43;94904.97;;;26.05;100.00
5500;BME280;2772;42.700;23.304;2023-06-26T08:54:15;94909.09;;;26.16;100.00
5500;BME280;2772;42.700;23.304;2023-06-26T08:56:47;94903.13;;;26.25;100.00
5500;BME280;2772;42.700;23.304;2023-06-26T08:59:16;94908.91;;;26.30;100.00
5500;BME280;2772;42.700;23.304;2023-06-26T09:01:43;94897.91;;;26.34;100.00
5500;BME280;2772;42.700;23.304;2023-06-26T09:04:10;94902.06;;;26.45;100.00
5500;BME280;2772;42.700;23.304;2023-06-26T09:06:37;94889.19;;;26.73;100.00
5500;BME280;2772;42.700;23.304;2023-06-26T09:09:04;94892.63;;;26.77;100.00
5500;BME280;2772;42.700;23.304;2023-06-26T09:11:33;94895.50;;;26.70;100.00
5500;BME280;2772;42.700;23.304;2023-06-26T09:14:01;94896.38;;;26.60;100.00
5500;BME280;2772;42.700;23.304;2023-06-26T09:16:39;94893.28;;;26.58;100.00
5500;BME280;2772;42.700;23.304;2023-06-26T09:19:09;94898.34;;;26.59;100.00
5500;BME280;2772;42.700;23.304;2023-06-26T09:21:37;94886.34;;;26.80;100.00
5500;BME280;2772;42.700;23.304;2023-06-26T09:24:06;94895.19;;;26.64;100.00
5500;BME280;2772;42.700;23.304;2023-06-26T09:26:33;94886.97;;;26.64;100.00
5500;BME280;2772;42.700;23.304;2023-06-26T09:29:02;94895.78;;;26.75;100.00
5500;BME280;2772;42.700;23.304;2023-06-26T09:31:29;94903.47;;;26.84;100.00
5500;BME280;2772;42.700;23.304;2023-06-26T09:33:58;94888.66;;;27.04;100.00
5500;BME280;2772;42.700;23.304;2023-06-26T09:36:28;94893.97;;;27.38;100.00
5500;BME280;2772;42.700;23.304;2023-06-26T09:38:58;94887.84;;;27.30;100.00
5500;BME280;2772;42.700;23.304;2023-06-26T09:41:25;94890.72;;;27.20;100.00
5500;BME280;2772;42.700;23.304;2023-06-26T09:43:52;94886.16;;;26.90;100.00
5500;BME280;2772;42.700;23.304;2023-06-26T09:46:26;94889.44;;;26.82;100.00
5500;BME280;2772;42.700;23.304;2023-06-26T09:48:58;94884.97;;;26.68;100.00
5500;BME280;2772;42.700;23.304;2023-06-26T09:51:25;94881.66;;;26.80;100.00
5500;BME280;2772;42.700;23.304;2023-06-26T09:53:52;94882.59;;;26.93;100.00
5500;BME280;2772;42.700;23.304;2023-06-26T09:56:19;94892.13;;;27.08;100.00
5500;BME280;2772;42.700;23.304;2023-06-26T09:58:47;94897.88;;;26.91;100.00
5500;BME280;2772;42.700;23.304;2023-06-26T10:01:13;94887.53;;;26.79;100.00
5500;BME280;2772;42.700;23.304;2023-06-26T10:03:42;94896.56;;;26.99;100.00
5500;BME280;2772;42.700;23.304;2023-06-26T10:06:11;94879.34;;;27.02;100.00
5500;BME280;2772;42.700;23.304;2023-06-26T10:08:39;94890.50;;;27.11;100.00
5500;BME280;2772;42.700;23.304;2023-06-26T10:11:07;94878.81;;;27.10;100.00
5500;BME280;2772;42.700;23.304;2023-06-26T10:13:37;94907.06;;;27.04;100.00
5500;BME280;2772;42.700;23.304;2023-06-26T10:16:07;94897.09;;;26.90;100.00
5500;BME280;2772;42.700;23.304;2023-06-26T10:18:36;94879.81;;;26.97;100.00
5500;BME280;2772;42.700;23.304;2023-06-26T10:21:06;94895.50;;;26.70;100.00
5500;BME280;2772;42.700;23.304;2023-06-26T10:23:36;94883.72;;;26.46;100.00
5500;BME280;2772;42.700;23.304;2023-06-26T10:26:06;94901.19;;;26.25;100.00
5500;BME280;2772;42.700;23.304;2023-06-26T10:28:34;94899.28;;;26.22;100.00
5500;BME280;2772;42.700;23.304;2023-06-26T10:31:05;94895.88;;;26.15;100.00
5500;BME280;2772;42.700;23.304;2023-06-26T10:33:34;94895.59;;;26.32;100.00
5500;BME280;2772;42.700;23.304;2023-06-26T10:36:15;94903.38;;;26.34;100.00
5500;BME280;2772;42.700;23.304;2023-06-26T10:38:53;94900.59;;;26.11;100.00
5500;BME280;2772;42.700;23.304;2023-06-26T10:41:21;94884.03;;;26.21;100.00
5500;BME280;2772;42.700;23.304;2023-06-26T10:43:50;94888.84;;;26.40;100.00
5500;BME280;2772;42.700;23.304;2023-06-26T10:46:18;94886.69;;;26.55;100.00
5500;BME280;2772;42.700;23.304;2023-06-26T10:48:58;94897.22;;;26.57;100.00
5500;BME280;2772;42.700;23.304;2023-06-26T10:51:31;94879.94;;;26.67;100.00
5500;BME280;2772;42.700;23.304;2023-06-26T10:53:58;94884.03;;;26.78;100.00
5500;BME280;2772;42.700;23.304;2023-06-26T10:56:45;94885.81;;;26.88;100.00
5500;BME280;2772;42.700;23.304;2023-06-26T10:59:14;94889.25;;;26.69;100.00
5500;BME280;2772;42.700;23.304;2023-06-26T11:01:42;94879.09;;;26.70;100.00
5500;BME280;2772;42.700;23.304;2023-06-26T11:04:09;94874.66;;;26.53;100.00
5500;BME280;2772;42.700;23.304;2023-06-26T11:06:38;94874.47;;;26.67;100.00
5500;BME280;2772;42.700;23.304;2023-06-26T11:09:10;94876.06;;;26.61;100.00
5500;BME280;2772;42.700;23.304;2023-06-26T11:11:58;94866.72;;;26.85;100.00
5500;BME280;2772;42.700;23.304;2023-06-26T11:14:27;94874.94;;;27.08;100.00
5500;BME280;2772;42.700;23.304;2023-06-26T11:16:56;94868.56;;;27.14;100.00
5500;BME280;2772;42.700;23.304;2023-06-26T11:19:25;94868.88;;;26.97;100.00
5500;BME280;2772;42.700;23.304;2023-06-26T11:21:58;94866.72;;;27.08;100.00
5500;BME280;2772;42.700;23.304;2023-06-26T11:24:25;94875.56;;;26.69;100.00
5500;BME280;2772;42.700;23.304;2023-06-26T11:26:52;94866.25;;;26.67;100.00
5500;BME280;2772;42.700;23.304;2023-06-26T11:29:19;94862.88;;;26.82;100.00
5500;BME280;2772;42.700;23.304;2023-06-26T11:31:46;94859.00;;;26.80;100.00
5500;BME280;2772;42.700;23.304;2023-06-26T11:34:13;94856.09;;;26.67;99.46
5500;BME280;2772;42.700;23.304;2023-06-26T11:36:41;94860.66;;;26.74;99.84
5500;BME280;2772;42.700;23.304;2023-06-26T11:39:15;94868.75;;;26.81;99.63
5500;BME280;2772;42.700;23.304;2023-06-26T11:41:42;94866.38;;;26.83;100.00
5500;BME280;2772;42.700;23.304;2023-06-26T11:44:11;94854.19;;;26.87;100.00
5500;BME280;2772;42.700;23.304;2023-06-26T11:46:42;94851.75;;;26.93;100.00
5500;BME280;2772;42.700;23.304;2023-06-26T11:49:08;94854.72;;;27.02;100.00
5500;BME280;2772;42.700;23.304;2023-06-26T11:51:35;94853.88;;;27.05;100.00
5500;BME280;2772;42.700;23.304;2023-06-26T11:54:03;94843.84;;;26.98;100.00
5500;BME280;2772;42.700;23.304;2023-06-26T11:56:31;94847.81;;;26.94;100.00
5500;BME280;2772;42.700;23.304;2023-06-26T11:58:59;94858.13;;;26.86;100.00
5500;BME280;2772;42.700;23.304;2023-06-26T12:01:32;94858.06;;;26.67;100.00
5500;BME280;2772;42.700;23.304;2023-06-26T12:04:01;94846.75;;;26.65;100.00
5500;BME280;2772;42.700;23.304;2023-06-26T12:06:29;94849.31;;;26.75;100.00
5500;BME280;2772;42.700;23.304;2023-06-26T12:08:58;94837.69;;;26.71;100.00
5500;BME280;2772;42.700;23.304;2023-06-26T12:11:26;94845.09;;;26.94;100.00
5500;BME280;2772;42.700;23.304;2023-06-26T12:13:55;94846.75;;;27.11;100.00
5500;BME280;2772;42.700;23.304;2023-06-26T12:16:22;94848.59;;;27.17;99.44
5500;BME280;2772;42.700;23.304;2023-06-26T12:18:49;94860.56;;;27.27;95.44
5500;BME280;2772;42.700;23.304;2023-06-26T12:21:28;94856.44;;;27.38;96.18
5500;BME280;2772;42.700;23.304;2023-06-26T12:23:58;94847.53;;;27.54;96.88
5500;BME280;2772;42.700;23.304;2023-06-26T12:26:25;94851.59;;;27.65;90.42
5500;BME280;2772;42.700;23.304;2023-06-26T12:28:53;94856.03;;;27.59;89.59
5500;BME280;2772;42.700;23.304;2023-06-26T12:31:21;94848.59;;;27.60;92.58
5500;BME280;2772;42.700;23.304;2023-06-26T12:33:48;94844.22;;;27.62;94.42
5500;BME280;2772;42.700;23.304;2023-06-26T12:36:17;94850.91;;;27.61;94.85
5500;BME280;2772;42.700;23.304;2023-06-26T12:38:45;94853.66;;;27.61;97.08
5500;BME280;2772;42.700;23.304;2023-06-26T12:41:12;94853.66;;;27.61;96.66
5500;BME280;2772;42.700;23.304;2023-06-26T12:43:40;94850.41;;;27.47;100.00
5500;BME280;2772;42.700;23.304;2023-06-26T12:46:09;94842.09;;;27.31;100.00
5500;BME280;2772;42.700;23.304;2023-06-26T12:48:38;94848.41;;;27.28;100.00
5500;BME280;2772;42.700;23.304;2023-06-26T12:51:10;94844.53;;;27.25;100.00
5500;BME280;2772;42.700;23.304;2023-06-26T12:53:37;94852.22;;;27.11;100.00
5500;BME280;2772;42.700;23.304;2023-06-26T12:56:05;94854.13;;;26.91;100.00
5500;BME280;2772;42.700;23.304;2023-06-26T12:58:32;94848.66;;;26.91;100.00
5500;BME280;2772;42.700;23.304;2023-06-26T13:00:59;94841.91;;;26.76;100.00
5500;BME280;2772;42.700;23.304;2023-06-26T13:03:26;94848.94;;;26.73;100.00
5500;BME280;2772;42.700;23.304;2023-06-26T13:05:55;94843.31;;;26.84;100.00
5500;BME280;2772;42.700;23.304;2023-06-26T13:08:21;94838.59;;;26.84;100.00
5500;BME280;2772;42.700;23.304;2023-06-26T13:10:48;94843.97;;;26.91;100.00
5500;BME280;2772;42.700;23.304;2023-06-26T13:13:15;94843.19;;;26.91;100.00
5500;BME280;2772;42.700;23.304;2023-06-26T13:15:42;94842.66;;;26.99;100.00
5500;BME280;2772;42.700;23.304;2023-06-26T13:18:09;94847.56;;;27.08;100.00
5500;BME280;2772;42.700;23.304;2023-06-26T13:20:35;94854.19;;;27.10;100.00
5500;BME280;2772;42.700;23.304;2023-06-26T13:23:03;94848.31;;;27.12;100.00